Time;durP1;ratioP1;P1;durP2;ratioP2;P2;SDS_P1;SDS_P2;PMS_P1;PMS_P2;Temp;Humidity;BMP_temperature;BMP_pressure;BME280_temperature;BME280_humidity;BME280_pressure;Samples;Min_cycle;Max_cycle;Signal;HPM_P1;HPM_P2
2021/06/30 00:01:27;;;;;;;0.00;0.00;;;16.50;79.90;15.70;101060.00;;;;5018444;28;20041;-71
2021/06/30 00:03:53;;;;;;;0.00;0.00;;;16.50;80.60;15.70;101053.00;;;;5019661;28;21096;-71
2021/06/30 00:06:20;;;;;;;0.00;0.00;;;16.50;80.50;15.80;101053.00;;;;5017507;28;20037;-71
2021/06/30 00:08:48;;;;;;;0.00;0.00;;;16.50;80.90;15.80;101058.00;;;;5019318;28;20075;-71
2021/06/30 00:11:15;;;;;;;0.00;0.00;;;16.50;80.50;15.80;101056.00;;;;5020582;28;20067;-72
2021/06/30 00:13:42;;;;;;;0.00;0.00;;;16.50;79.80;15.80;101044.00;;;;5019236;28;20053;-71
2021/06/30 00:16:09;;;;;;;0.00;0.00;;;16.50;81.40;15.80;101068.00;;;;5019448;28;20123;-71
2021/06/30 00:18:35;;;;;;;0.00;0.00;;;16.60;80.50;15.80;101053.00;;;;5020494;28;20099;-71
2021/06/30 00:21:02;;;;;;;0.00;0.00;;;16.60;80.20;15.80;101050.00;;;;5017206;28;20041;-70
2021/06/30 00:23:28;;;;;;;0.00;0.00;;;;;15.80;101050.00;;;;5018204;28;20049;-71
2021/06/30 00:25:55;;;;;;;0.10;0.10;;;16.50;78.80;15.80;101056.00;;;;5021398;28;20080;-71
2021/06/30 00:28:21;;;;;;;0.00;0.00;;;16.50;79.50;15.70;101050.00;;;;5019883;28;20280;-71
2021/06/30 00:30:47;;;;;;;0.00;0.00;;;16.50;81.00;15.70;101052.00;;;;5018699;28;20141;-71
2021/06/30 00:33:12;;;;;;;0.00;0.00;;;16.50;79.50;15.60;101052.00;;;;4974174;28;1332414;-71
2021/06/30 00:35:38;;;;;;;0.00;0.00;;;16.50;81.40;15.60;101056.00;;;;5019596;28;20124;-71
2021/06/30 00:38:04;;;;;;;0.00;0.00;;;16.40;80.80;15.50;101052.00;;;;5019928;28;20092;-71
2021/06/30 00:40:31;;;;;;;0.00;0.00;;;16.30;81.20;15.50;101054.00;;;;5017349;28;20059;-71
2021/06/30 00:42:57;;;;;;;0.00;0.00;;;16.30;83.60;15.50;101057.00;;;;5020917;28;20045;-70
2021/06/30 00:45:23;;;;;;;0.00;0.00;;;16.20;80.40;15.50;101053.00;;;;5019839;28;20025;-71
2021/06/30 00:47:49;;;;;;;0.00;0.00;;;16.30;81.20;15.50;101047.00;;;;5022884;28;20336;-70
2021/06/30 00:50:17;;;;;;;0.00;0.00;;;16.30;81.30;15.40;101054.00;;;;5025136;28;20516;-71
2021/06/30 00:52:44;;;;;;;0.00;0.00;;;16.20;81.00;15.40;101051.00;;;;5023780;28;20041;-71
2021/06/30 00:55:11;;;;;;;0.00;0.00;;;16.20;81.30;15.30;101046.00;;;;4974426;28;20041;-71
2021/06/30 00:57:37;;;;;;;0.00;0.00;;;16.10;79.80;15.40;101049.00;;;;5025116;28;20110;-71
2021/06/30 01:00:06;;;;;;;0.00;0.00;;;16.20;80.60;15.40;101055.00;;;;5023771;28;20037;-71
2021/06/30 01:02:32;;;;;;;0.00;0.00;;;16.10;82.00;15.40;101049.00;;;;5024664;28;20041;-72
2021/06/30 01:04:59;;;;;;;0.00;0.00;;;16.20;81.70;15.40;101043.00;;;;5023881;28;20049;-72
2021/06/30 01:07:24;;;;;;;0.00;0.00;;;16.20;81.80;15.40;101051.00;;;;5010544;28;20863;-71
2021/06/30 01:09:50;;;;;;;0.00;0.00;;;16.20;80.80;15.40;101054.00;;;;5022116;28;20045;-72
2021/06/30 01:12:16;;;;;;;0.00;0.00;;;16.20;83.10;15.40;101057.00;;;;5024475;28;20044;-72
2021/06/30 01:14:42;;;;;;;0.00;0.00;;;16.20;81.90;15.40;101056.00;;;;5023042;28;20121;-72
2021/06/30 01:17:09;;;;;;;0.00;0.00;;;16.20;81.40;15.40;101048.00;;;;5040842;28;20042;-72
2021/06/30 01:19:37;;;;;;;;;;;16.20;80.90;15.40;101049.00;;;;5022897;28;20445;-72
2021/06/30 01:22:06;;;;;;;0.00;0.00;;;16.20;83.00;15.40;101053.00;;;;5022302;28;20450;-72
2021/06/30 01:24:36;;;;;;;0.00;0.00;;;16.20;82.00;15.50;101040.00;;;;5041592;28;20058;-72
2021/06/30 01:27:03;;;;;;;0.00;0.00;;;16.20;82.10;15.50;101047.00;;;;5024627;28;20045;-73
2021/06/30 01:29:30;;;;;;;0.00;0.00;;;16.20;82.90;15.40;101050.00;;;;5026362;28;20052;-73
2021/06/30 01:31:55;;;;;;;0.00;0.00;;;16.20;82.90;15.50;101035.00;;;;5025244;28;20479;-73
2021/06/30 01:34:21;;;;;;;0.00;0.00;;;16.30;83.30;15.40;101034.00;;;;5025067;28;20099;-74
2021/06/30 01:36:49;;;;;;;0.00;0.00;;;16.20;82.80;15.40;101036.00;;;;5025823;28;20045;-74
2021/06/30 01:39:17;;;;;;;0.00;0.00;;;16.20;81.90;15.40;101034.00;;;;5025630;28;20088;-74
2021/06/30 01:41:43;;;;;;;0.00;0.00;;;16.10;81.00;15.30;101023.00;;;;5027135;28;20041;-74
2021/06/30 01:44:10;;;;;;;0.00;0.00;;;16.10;81.90;15.30;101030.00;;;;5007333;28;20045;-72
2021/06/30 01:46:36;;;;;;;0.00;0.00;;;16.10;82.00;15.20;101028.00;;;;5022813;28;20657;-74
2021/06/30 01:49:04;;;;;;;0.00;0.00;;;16.10;83.80;15.20;101020.00;;;;5023704;28;20052;-72
2021/06/30 01:51:30;;;;;;;0.00;0.00;;;16.00;81.70;15.10;101010.00;;;;5022501;28;20038;-72
2021/06/30 01:54:00;;;;;;;0.00;0.00;;;15.90;81.40;15.10;101007.00;;;;5023267;28;20379;-73
2021/06/30 01:56:28;;;;;;;0.00;0.00;;;15.90;81.10;15.10;101003.00;;;;5027226;28;20050;-72
2021/06/30 01:59:12;;;;;;;0.00;0.00;;;15.90;80.80;15.00;100994.00;;;;5023986;28;20091;-73
2021/06/30 02:01:39;;;;;;;0.00;0.00;;;15.90;82.10;15.00;100994.00;;;;5022098;28;20042;-72
2021/06/30 02:04:05;;;;;;;0.05;0.05;;;15.90;82.60;15.00;100985.00;;;;5024454;28;20594;-73
2021/06/30 02:06:41;;;;;;;0.00;0.00;;;15.80;81.10;15.00;100979.00;;;;5024537;28;20512;-72
2021/06/30 02:09:10;;;;;;;0.00;0.00;;;15.80;82.90;15.00;100994.00;;;;5009195;28;20680;-74
2021/06/30 02:11:37;;;;;;;0.00;0.00;;;15.80;82.80;15.00;100995.00;;;;5024278;28;20029;-73
2021/06/30 02:14:06;;;;;;;0.00;0.00;;;15.80;81.80;14.90;100987.00;;;;5007438;28;20049;-73
2021/06/30 02:16:34;;;;;;;0.00;0.00;;;15.70;82.20;14.90;100986.00;;;;5021909;28;20041;-72
2021/06/30 02:19:04;;;;;;;0.00;0.00;;;15.70;82.00;14.90;100994.00;;;;5028137;28;20055;-73
2021/06/30 02:21:31;;;;;;;0.00;0.00;;;15.70;83.40;14.90;100994.00;;;;5023181;28;20041;-73
2021/06/30 02:23:58;;;;;;;;;;;15.70;81.60;14.90;100989.00;;;;5024322;28;20029;-72
2021/06/30 02:26:24;;;;;;;0.00;0.00;;;15.70;83.60;14.90;100980.00;;;;5023474;28;19921;-72
2021/06/30 02:28:50;;;;;;;0.00;0.00;;;15.70;83.80;14.90;100985.00;;;;5022763;28;20052;-73
2021/06/30 02:31:17;;;;;;;0.00;0.00;;;15.70;81.80;14.80;100982.00;;;;5023975;28;20617;-73
2021/06/30 02:33:45;;;;;;;0.00;0.00;;;15.70;83.00;14.90;100981.00;;;;5023102;28;20291;-73
2021/06/30 02:36:12;;;;;;;0.00;0.00;;;15.60;82.50;14.80;100975.00;;;;5025207;28;20127;-73
2021/06/30 02:38:38;;;;;;;0.00;0.00;;;15.60;83.80;14.80;100980.00;;;;5022735;28;20042;-74
2021/06/30 02:41:04;;;;;;;0.00;0.00;;;15.70;82.40;14.80;100979.00;;;;5024192;28;20327;-74
2021/06/30 02:43:30;;;;;;;0.00;0.00;;;15.60;82.50;14.90;100983.00;;;;5026281;28;21289;-73
2021/06/30 02:45:56;;;;;;;0.00;0.00;;;15.60;83.80;14.90;100980.00;;;;5023980;28;20613;-73
2021/06/30 02:48:25;;;;;;;0.00;0.00;;;15.70;83.90;14.90;100977.00;;;;5024436;28;20045;-75
2021/06/30 02:50:54;;;;;;;0.00;0.00;;;15.70;82.70;14.80;100970.00;;;;5022083;28;20091;-73
2021/06/30 02:53:20;;;;;;;0.00;0.00;;;15.60;84.20;14.80;100969.00;;;;5023258;28;20037;-72
2021/06/30 02:55:46;;;;;;;0.00;0.00;;;15.60;83.20;14.80;100968.00;;;;5025733;28;20045;-73
2021/06/30 02:58:12;;;;;;;0.00;0.00;;;15.60;82.50;14.80;100966.00;;;;5022589;28;20486;-72
2021/06/30 03:00:38;;;;;;;0.00;0.00;;;15.50;83.70;14.80;100971.00;;;;5020369;28;20049;-72
2021/06/30 03:03:04;;;;;;;0.00;0.00;;;15.50;83.10;14.70;100968.00;;;;5024543;28;20454;-72
2021/06/30 03:05:30;;;;;;;0.20;0.20;;;15.50;82.70;14.80;100977.00;;;;5019631;28;20041;-72
2021/06/30 03:07:56;;;;;;;0.10;0.10;;;15.60;83.20;14.80;100966.00;;;;5021945;28;20300;-73
2021/06/30 03:10:22;;;;;;;0.00;0.00;;;15.60;84.30;14.80;100971.00;;;;5007510;28;20064;-73
2021/06/30 03:12:48;;;;;;;0.00;0.00;;;15.60;84.60;14.80;100972.00;;;;5025615;28;20045;-72
2021/06/30 03:15:15;;;;;;;0.00;0.00;;;15.60;83.60;14.80;100970.00;;;;5025095;28;20122;-72
2021/06/30 03:17:43;;;;;;;0.00;0.00;;;15.60;85.50;14.80;100976.00;;;;5024223;28;20037;-72
2021/06/30 03:20:13;;;;;;;0.00;0.00;;;15.60;83.20;14.70;100971.00;;;;5021365;28;20041;-72
2021/06/30 03:22:40;;;;;;;0.00;0.00;;;15.50;82.40;14.70;100977.00;;;;5024878;28;20581;-72
2021/06/30 03:25:09;;;;;;;0.00;0.00;;;15.50;83.10;14.70;100976.00;;;;5021342;28;20411;-73
2021/06/30 03:27:36;;;;;;;0.00;0.00;;;15.50;84.50;14.80;100981.00;;;;5023707;28;20121;-72
2021/06/30 03:30:05;;;;;;;0.00;0.00;;;15.50;83.70;14.80;100974.00;;;;5005608;28;20524;-72
2021/06/30 03:32:31;;;;;;;0.00;0.00;;;15.60;82.40;14.80;100987.00;;;;5021629;28;20581;-72
2021/06/30 03:34:57;;;;;;;0.00;0.00;;;15.50;82.30;14.80;100988.00;;;;5023127;28;20059;-72
2021/06/30 03:37:23;;;;;;;0.00;0.00;;;15.60;83.20;14.80;100990.00;;;;5023931;28;20048;-72
2021/06/30 03:39:49;;;;;;;0.00;0.00;;;15.60;83.20;14.80;100996.00;;;;5021541;28;20046;-72
2021/06/30 03:42:16;;;;;;;0.10;0.10;;;15.60;84.20;14.80;100995.00;;;;5025144;28;20117;-72
2021/06/30 03:44:41;;;;;;;0.00;0.00;;;15.60;85.80;14.80;100990.00;;;;5023310;28;20049;-72
2021/06/30 03:47:08;;;;;;;0.00;0.00;;;15.60;84.10;14.90;100996.00;;;;5024386;28;20540;-72
2021/06/30 03:49:34;;;;;;;0.10;0.10;;;15.60;82.50;14.80;100986.00;;;;5019162;28;20041;-72
2021/06/30 03:52:00;;;;;;;0.00;0.00;;;15.60;83.50;14.80;100990.00;;;;5023937;28;20036;-72
2021/06/30 03:54:27;;;;;;;0.00;0.00;;;15.70;83.50;14.80;100996.00;;;;5023729;28;20043;-73
2021/06/30 03:56:53;;;;;;;0.00;0.00;;;15.60;84.70;14.80;101002.00;;;;5023061;28;20058;-71
2021/06/30 03:59:21;;;;;;;0.00;0.00;;;15.60;83.20;14.80;100994.00;;;;5020698;28;20152;-71
2021/06/30 04:01:50;;;;;;;0.00;0.00;;;15.60;83.60;14.90;100992.00;;;;5021062;28;20075;-71
2021/06/30 04:04:18;;;;;;;0.00;0.00;;;15.60;85.00;14.90;100993.00;;;;5040242;28;20523;-71
2021/06/30 04:06:44;;;;;;;0.00;0.00;;;15.60;84.60;14.80;100993.00;;;;5020916;28;20048;-71
2021/06/30 04:09:10;;;;;;;0.00;0.00;;;15.60;84.60;14.80;100997.00;;;;5024581;28;20041;-72
2021/06/30 04:11:36;;;;;;;0.10;0.10;;;15.60;82.40;14.80;101003.00;;;;5023780;28;20037;-71
2021/06/30 04:14:03;;;;;;;0.00;0.00;;;15.50;84.00;14.80;101014.00;;;;5022348;28;20061;-71
2021/06/30 04:16:29;;;;;;;0.00;0.00;;;15.60;84.30;14.80;101008.00;;;;5022021;28;20038;-72
2021/06/30 04:18:55;;;;;;;0.00;0.00;;;15.50;84.50;14.80;101011.00;;;;5022571;28;20037;-72
2021/06/30 04:21:21;;;;;;;0.00;0.00;;;15.60;85.00;14.80;101005.00;;;;5024542;28;20126;-72
2021/06/30 04:23:47;;;;;;;0.00;0.00;;;15.50;85.80;14.80;101009.00;;;;5025201;28;20496;-70
2021/06/30 04:26:13;;;;;;;0.00;0.00;;;15.50;84.30;14.80;101022.00;;;;5025932;28;20423;-72
2021/06/30 04:28:39;;;;;;;0.00;0.00;;;15.50;85.80;14.80;101021.00;;;;5025327;28;20037;-72
2021/06/30 04:31:05;;;;;;;0.00;0.00;;;15.60;85.50;14.80;101016.00;;;;5040381;28;20045;-71
2021/06/30 04:33:31;;;;;;;0.00;0.00;;;15.60;84.40;14.90;101010.00;;;;5011381;28;20488;-72
2021/06/30 04:35:58;;;;;;;0.00;0.00;;;15.60;85.30;14.90;101012.00;;;;5026842;28;20041;-72
2021/06/30 04:38:27;;;;;;;0.00;0.00;;;15.60;85.10;14.90;101015.00;;;;5024961;28;20461;-72
2021/06/30 04:40:54;;;;;;;0.00;0.00;;;15.60;85.00;14.90;101003.00;;;;5025791;28;20037;-71
2021/06/30 04:43:20;;;;;;;0.00;0.00;;;15.60;85.00;14.90;101011.00;;;;5026728;28;20061;-72
2021/06/30 04:45:47;;;;;;;0.00;0.00;;;15.70;84.30;14.90;101007.00;;;;5026174;28;20038;-71
2021/06/30 04:48:14;;;;;;;0.00;0.00;;;15.70;85.00;14.90;101003.00;;;;5009783;28;20100;-73
2021/06/30 04:50:41;;;;;;;0.00;0.00;;;15.70;84.90;14.90;101004.00;;;;5027046;28;20801;-73
2021/06/30 04:53:07;;;;;;;0.00;0.00;;;15.70;85.20;14.90;101008.00;;;;5026227;28;20417;-73
2021/06/30 04:55:33;;;;;;;0.00;0.00;;;15.70;85.70;14.90;101011.00;;;;5026972;28;20072;-72
2021/06/30 04:57:59;;;;;;;0.00;0.00;;;15.70;84.30;14.90;101008.00;;;;5023048;28;20041;-73
2021/06/30 05:00:25;;;;;;;0.00;0.00;;;15.70;84.80;14.90;101009.00;;;;5026845;28;20570;-75
2021/06/30 05:02:51;;;;;;;0.00;0.00;;;15.70;85.70;15.00;101022.00;;;;5027164;28;20041;-75
2021/06/30 05:05:17;;;;;;;0.00;0.00;;;15.70;86.80;15.00;101006.00;;;;5033806;28;20060;-76
2021/06/30 05:07:43;;;;;;;0.00;0.00;;;15.70;86.30;15.00;101011.00;;;;5026925;28;20050;-76
2021/06/30 05:10:09;;;;;;;0.00;0.00;;;15.70;85.30;15.00;101001.00;;;;5026687;28;20451;-76
2021/06/30 05:12:35;;;;;;;0.00;0.00;;;15.80;84.50;15.00;101014.00;;;;5026388;28;20080;-77
2021/06/30 05:15:01;;;;;;;0.00;0.00;;;15.70;85.30;15.00;101021.00;;;;5032120;28;20045;-76
2021/06/30 05:17:27;;;;;;;0.00;0.00;;;15.80;85.20;15.00;101022.00;;;;5013718;28;20053;-75
2021/06/30 05:19:53;;;;;;;0.00;0.00;;;15.80;84.10;15.00;101006.00;;;;5032930;28;20030;-76
2021/06/30 05:22:18;;;;;;;0.00;0.00;;;15.70;85.40;15.00;101008.00;;;;4983994;28;20038;-76
2021/06/30 05:24:44;;;;;;;0.00;0.00;;;15.70;83.60;15.00;101006.00;;;;5035235;28;20049;-77
2021/06/30 05:27:10;;;;;;;0.00;0.00;;;15.70;84.00;15.00;101005.00;;;;5031745;28;20051;-77
2021/06/30 05:29:36;;;;;;;0.00;0.00;;;15.80;85.00;15.00;101008.00;;;;5030463;28;21157;-77
2021/06/30 05:32:03;;;;;;;0.00;0.00;;;15.80;84.10;15.00;101016.00;;;;5028609;28;20072;-77
2021/06/30 05:34:28;;;;;;;0.00;0.00;;;15.80;84.10;14.90;101015.00;;;;5028729;28;20049;-77
2021/06/30 05:36:54;;;;;;;0.00;0.00;;;15.70;84.10;14.90;101012.00;;;;5030195;28;20053;-78
2021/06/30 05:39:21;;;;;;;0.00;0.00;;;15.70;85.60;15.00;101015.00;;;;5032371;28;20262;-78
2021/06/30 05:41:48;;;;;;;0.00;0.00;;;15.80;85.60;15.00;101013.00;;;;5029571;28;20065;-77
2021/06/30 05:44:15;;;;;;;0.00;0.00;;;15.70;85.70;15.00;101016.00;;;;5027127;28;20033;-78
2021/06/30 05:46:43;;;;;;;0.00;0.00;;;15.80;85.10;15.00;101014.00;;;;5021034;28;20041;-78
2021/06/30 05:49:14;;;;;;;0.00;0.00;;;15.80;85.60;15.00;101011.00;;;;5021044;28;20585;-78
2021/06/30 05:51:43;;;;;;;0.00;0.00;;;15.80;85.00;15.00;101002.00;;;;5006302;28;20132;-76
2021/06/30 05:54:12;;;;;;;0.00;0.00;;;15.80;85.80;15.10;101018.00;;;;5034495;28;20102;-76
2021/06/30 05:56:39;;;;;;;0.00;0.00;;;15.80;84.10;15.10;101021.00;;;;5033114;28;20049;-75
2021/06/30 05:59:06;;;;;;;0.00;0.00;;;15.90;84.30;15.10;101014.00;;;;5044106;28;20045;-77
2021/06/30 06:01:32;;;;;;;0.00;0.00;;;15.90;84.90;15.10;101020.00;;;;5028107;28;20041;-76
2021/06/30 06:03:59;;;;;;;0.00;0.00;;;15.80;84.10;15.10;101015.00;;;;5023882;28;20512;-76
2021/06/30 06:06:25;;;;;;;0.00;0.00;;;15.80;85.20;15.10;101022.00;;;;5024976;28;20562;-77
2021/06/30 06:08:51;;;;;;;0.00;0.00;;;15.90;84.40;15.10;101027.00;;;;5025953;28;20103;-77
2021/06/30 06:11:17;;;;;;;0.00;0.00;;;15.80;85.50;15.20;101021.00;;;;5027621;28;20041;-76
2021/06/30 06:13:45;;;;;;;0.00;0.00;;;15.90;85.00;15.20;101025.00;;;;5024883;28;20512;-77
2021/06/30 06:16:19;;;;;;;0.00;0.00;;;15.90;84.30;15.20;101028.00;;;;5024108;28;20674;-77
2021/06/30 06:18:45;;;;;;;0.00;0.00;;;15.90;84.20;15.30;101015.00;;;;5024216;28;20061;-77
2021/06/30 06:21:11;;;;;;;0.10;0.10;;;16.00;84.50;15.30;101018.00;;;;5022189;28;20048;-77
2021/06/30 06:23:37;;;;;;;0.00;0.00;;;16.10;83.90;15.30;101021.00;;;;5007896;28;20045;-77
2021/06/30 06:26:04;;;;;;;0.00;0.00;;;16.00;84.40;15.30;101014.00;;;;5009275;28;20044;-77
2021/06/30 06:28:33;;;;;;;0.00;0.00;;;16.10;83.70;15.30;101020.00;;;;5022735;28;20045;-77
2021/06/30 06:31:02;;;;;;;0.05;0.05;;;16.10;83.70;15.20;101020.00;;;;5023467;28;20041;-77
2021/06/30 06:33:29;;;;;;;0.00;0.00;;;16.00;84.00;15.20;101019.00;;;;4991023;28;20048;-78
2021/06/30 06:35:55;;;;;;;0.00;0.00;;;16.00;85.10;15.30;101013.00;;;;5024509;28;20050;-77
2021/06/30 06:38:23;;;;;;;0.00;0.00;;;16.00;85.30;15.30;101014.00;;;;5004949;28;20113;-77
2021/06/30 06:40:51;;;;;;;0.00;0.00;;;16.00;84.30;15.20;101019.00;;;;5025410;28;20786;-77
2021/06/30 06:43:18;;;;;;;0.00;0.00;;;16.00;84.20;15.20;101034.00;;;;5025811;28;20037;-77
2021/06/30 06:45:44;;;;;;;0.00;0.00;;;16.00;83.60;15.20;101034.00;;;;5023954;28;20663;-77
2021/06/30 06:48:10;;;;;;;0.00;0.00;;;16.30;84.80;15.20;101036.00;;;;5022224;28;20492;-77
2021/06/30 06:50:37;;;;;;;0.00;0.00;;;16.00;86.00;15.20;101040.00;;;;5038525;28;20041;-77
2021/06/30 06:53:03;;;;;;;0.00;0.00;;;15.90;83.70;15.20;101040.00;;;;5021386;28;20052;-77
2021/06/30 06:55:31;;;;;;;0.03;0.03;;;15.90;83.90;15.20;101038.00;;;;5022058;28;20141;-77
2021/06/30 06:57:56;;;;;;;0.00;0.00;;;16.00;84.80;15.30;101037.00;;;;5009686;28;20091;-78
2021/06/30 07:00:22;;;;;;;0.00;0.00;;;16.00;85.50;15.40;101039.00;;;;5008521;28;20042;-77
2021/06/30 07:02:48;;;;;;;0.00;0.00;;;16.10;84.70;15.40;101042.00;;;;5022829;28;20045;-77
2021/06/30 07:05:14;;;;;;;0.00;0.00;;;16.10;84.30;15.40;101045.00;;;;5003935;28;20045;-78
2021/06/30 07:07:42;;;;;;;0.00;0.00;;;16.10;85.30;15.40;101037.00;;;;5022350;28;20041;-78
2021/06/30 07:10:09;;;;;;;0.10;0.10;;;16.10;84.30;15.30;101040.00;;;;5021787;28;20041;-77
2021/06/30 07:12:35;;;;;;;0.00;0.00;;;16.10;84.30;15.30;101029.00;;;;5023299;28;20503;-78
2021/06/30 07:15:02;;;;;;;0.00;0.00;;;16.10;84.60;15.20;101038.00;;;;5022378;28;20542;-77
2021/06/30 07:17:29;;;;;;;0.00;0.00;;;16.00;84.70;15.20;101030.00;;;;5026240;28;20103;-78
2021/06/30 07:19:55;;;;;;;0.00;0.00;;;16.00;83.90;15.20;101038.00;;;;5036951;28;20456;-78
2021/06/30 07:22:21;;;;;;;0.00;0.00;;;15.90;83.90;15.20;101036.00;;;;5024919;28;20050;-78
2021/06/30 07:24:47;;;;;;;0.10;0.10;;;15.90;83.30;15.20;101049.00;;;;5037526;28;20041;-77
2021/06/30 07:27:14;;;;;;;0.00;0.00;;;15.90;84.60;15.20;101041.00;;;;5024789;28;20506;-77
2021/06/30 07:29:40;;;;;;;0.00;0.00;;;15.90;84.40;15.20;101046.00;;;;5024768;28;20067;-77
2021/06/30 07:32:07;;;;;;;0.00;0.00;;;15.90;84.90;15.20;101046.00;;;;5022674;28;20692;-78
2021/06/30 07:34:32;;;;;;;0.00;0.00;;;15.90;84.80;15.20;101052.00;;;;4989285;28;20369;-78
2021/06/30 07:36:59;;;;;;;0.00;0.00;;;15.90;86.00;15.30;101051.00;;;;5020088;28;20649;-76
2021/06/30 07:39:25;;;;;;;0.00;0.00;;;16.00;86.70;15.40;101049.00;;;;5025747;28;20052;-77
2021/06/30 07:41:55;;;;;;;0.00;0.00;;;16.10;85.10;15.40;101044.00;;;;5007212;28;20071;-78
2021/06/30 07:44:21;;;;;;;0.00;0.00;;;16.10;85.70;15.40;101047.00;;;;5007329;28;20045;-78
2021/06/30 07:46:47;;;;;;;0.00;0.00;;;16.10;83.60;15.30;101052.00;;;;5023677;28;20030;-79
2021/06/30 07:49:14;;;;;;;0.00;0.00;;;16.10;84.40;15.40;101057.00;;;;5023207;28;20448;-79
2021/06/30 07:51:40;;;;;;;0.00;0.00;;;16.10;84.80;15.40;101052.00;;;;5040383;28;20029;-79
2021/06/30 07:54:06;;;;;;;0.00;0.00;;;16.00;85.10;15.40;101053.00;;;;5022149;28;20127;-79
2021/06/30 07:56:36;;;;;;;0.00;0.00;;;16.10;85.50;15.50;101056.00;;;;5025038;28;20048;-78
2021/06/30 07:59:04;;;;;;;0.00;0.00;;;16.20;86.70;15.50;101061.00;;;;5028637;28;20399;-79
2021/06/30 08:01:30;;;;;;;0.00;0.00;;;16.20;85.70;15.50;101059.00;;;;5028794;28;20033;-79
2021/06/30 08:03:57;;;;;;;0.00;0.00;;;16.20;85.50;15.60;101064.00;;;;5028667;28;20046;-78
2021/06/30 08:06:23;;;;;;;0.00;0.00;;;16.30;86.00;15.60;101057.00;;;;5027198;28;20065;-78
2021/06/30 08:08:49;;;;;;;0.00;0.00;;;16.30;85.20;15.60;101062.00;;;;5029868;28;20136;-78
2021/06/30 08:11:17;;;;;;;0.00;0.00;;;16.30;85.20;15.60;101060.00;;;;5012045;28;20095;-79
2021/06/30 08:13:43;;;;;;;0.00;0.00;;;18.10;86.20;15.60;101065.00;;;;5025226;28;20053;-79
2021/06/30 08:16:10;;;;;;;0.00;0.00;;;16.30;85.10;15.70;101065.00;;;;5027875;28;20496;-78
2021/06/30 08:18:36;;;;;;;0.00;0.00;;;16.40;85.60;15.70;101070.00;;;;5030812;28;20038;-78
2021/06/30 08:21:03;;;;;;;0.00;0.00;;;16.40;84.30;15.70;101072.00;;;;5024659;28;20055;-77
2021/06/30 08:23:29;;;;;;;0.00;0.00;;;16.40;83.90;15.70;101072.00;;;;5028487;28;20045;-79
2021/06/30 08:25:55;;;;;;;0.00;0.00;;;16.40;84.90;15.70;101061.00;;;;5026846;28;20053;-78
2021/06/30 08:28:24;;;;;;;0.00;0.00;;;16.50;86.00;15.80;101069.00;;;;5027506;28;20045;-78
2021/06/30 08:30:52;;;;;;;0.00;0.00;;;16.40;85.30;15.80;101065.00;;;;5028411;28;20069;-78
2021/06/30 08:33:18;;;;;;;;;;;16.50;86.70;15.80;101067.00;;;;5027566;28;20095;-78
2021/06/30 08:35:44;;;;;;;0.00;0.00;;;16.50;85.20;15.80;101072.00;;;;5027983;28;19928;-78
2021/06/30 08:38:10;;;;;;;0.00;0.00;;;16.50;85.30;15.80;101070.00;;;;5027316;28;20038;-79
2021/06/30 08:40:38;;;;;;;0.00;0.00;;;16.60;84.40;15.80;101070.00;;;;5026569;28;20642;-78
2021/06/30 08:43:05;;;;;;;;;;;16.50;84.20;15.90;101070.00;;;;5030826;28;20823;-78
2021/06/30 08:45:30;;;;;;;0.10;0.10;;;16.60;86.10;16.00;101074.00;;;;5027944;28;19939;-79
2021/06/30 08:47:58;;;;;;;0.00;0.00;;;16.70;85.30;16.10;101074.00;;;;5028062;28;21016;-78
2021/06/30 08:50:25;;;;;;;0.00;0.00;;;16.80;84.70;16.10;101067.00;;;;5023867;28;20037;-78
2021/06/30 08:52:52;;;;;;;0.00;0.00;;;16.80;84.30;16.20;101084.00;;;;5031165;28;20037;-79
2021/06/30 08:55:18;;;;;;;0.00;0.00;;;16.90;84.00;16.10;101080.00;;;;5027664;28;20154;-77
2021/06/30 08:57:46;;;;;;;0.00;0.00;;;16.80;83.70;16.00;101081.00;;;;5027743;28;20111;-78
2021/06/30 09:00:13;;;;;;;0.00;0.00;;;16.70;82.80;16.00;101084.00;;;;5026267;28;20124;-79
2021/06/30 09:02:45;;;;;;;0.00;0.00;;;16.70;83.50;15.90;101084.00;;;;5020694;28;20530;-78
2021/06/30 09:07:41;;;;;;;0.00;0.00;;;16.60;84.30;16.00;101083.00;;;;5030551;28;20065;-78
2021/06/30 09:10:08;;;;;;;0.00;0.00;;;16.70;84.80;16.00;101087.00;;;;5028320;28;20165;-79
2021/06/30 09:12:41;;;;;;;0.00;0.00;;;16.70;84.30;16.00;101091.00;;;;5026404;28;20044;-78
2021/06/30 09:15:18;;;;;;;0.00;0.00;;;16.70;85.20;15.90;101101.00;;;;5040564;28;20064;-79
2021/06/30 09:17:46;;;;;;;0.00;0.00;;;16.70;84.30;15.90;101103.00;;;;5026202;28;20135;-79
2021/06/30 09:20:13;;;;;;;0.00;0.00;;;16.60;85.10;15.90;101100.00;;;;5022686;28;20536;-79
2021/06/30 09:22:47;;;;;;;0.00;0.00;;;16.70;85.20;16.00;101105.00;;;;5021382;28;20587;-79
2021/06/30 09:25:40;;;;;;;0.00;0.00;;;16.70;85.80;16.00;101103.00;;;;5023585;28;20076;-79
2021/06/30 09:28:24;;;;;;;0.10;0.10;;;16.70;86.30;16.00;101104.00;;;;5005061;28;20045;-79
2021/06/30 09:31:06;;;;;;;0.22;0.10;;;16.70;84.50;16.00;101109.00;;;;5006593;28;20076;-80
2021/06/30 09:33:52;;;;;;;0.00;0.00;;;16.70;84.90;16.00;101104.00;;;;5024909;28;20058;-79
2021/06/30 09:36:33;;;;;;;0.08;0.08;;;16.70;83.80;16.00;101110.00;;;;5018990;28;20119;-79
2021/06/30 09:39:10;;;;;;;0.00;0.00;;;16.70;85.10;16.00;101114.00;;;;5020599;28;20078;-79
2021/06/30 09:41:38;;;;;;;0.00;0.00;;;16.80;84.50;16.10;101126.00;;;;5022591;28;20064;-79
2021/06/30 09:44:27;;;;;;;0.00;0.00;;;16.80;84.10;16.00;101118.00;;;;5005686;28;20045;-79
2021/06/30 09:46:55;;;;;;;0.00;0.00;;;16.80;85.00;16.00;101116.00;;;;5021560;28;20136;-79
2021/06/30 09:49:22;;;;;;;0.00;0.00;;;16.70;83.70;16.00;101123.00;;;;5026089;28;20049;-79
2021/06/30 09:52:10;;;;;;;0.00;0.00;;;16.70;85.50;15.90;101123.00;;;;5007518;28;20033;-76
2021/06/30 09:54:39;;;;;;;0.00;0.00;;;16.70;85.50;16.00;101127.00;;;;5020558;28;20050;-72
2021/06/30 09:57:24;;;;;;;0.00;0.00;;;16.70;85.70;16.10;101127.00;;;;5022848;28;20030;-72
2021/06/30 09:59:50;;;;;;;0.00;0.00;;;16.80;86.30;16.10;101121.00;;;;5003257;28;20057;-72
2021/06/30 10:02:19;;;;;;;0.00;0.00;;;16.70;83.30;16.00;101121.00;;;;5007468;28;20064;-72
2021/06/30 10:05:00;;;;;;;0.00;0.00;;;16.70;84.00;15.90;101114.00;;;;5024676;28;20050;-72
2021/06/30 10:07:29;;;;;;;0.00;0.00;;;16.60;83.70;15.90;101118.00;;;;5018440;28;20038;-73
2021/06/30 10:09:55;;;;;;;0.00;0.00;;;16.60;85.50;16.00;101112.00;;;;5023054;28;20072;-72
2021/06/30 10:12:27;;;;;;;0.00;0.00;;;16.60;84.90;16.00;101119.00;;;;5022756;28;20523;-74
2021/06/30 10:14:53;;;;;;;0.00;0.00;;;16.70;84.50;16.00;101114.00;;;;5020363;28;20037;-72
2021/06/30 10:17:20;;;;;;;0.00;0.00;;;16.70;85.80;16.10;101122.00;;;;5022033;28;20029;-72
2021/06/30 10:19:49;;;;;;;0.00;0.00;;;16.70;84.60;16.20;101112.00;;;;5019010;28;20048;-72
2021/06/30 10:22:16;;;;;;;0.00;0.00;;;16.90;85.20;16.40;101113.00;;;;5021331;28;20041;-72
2021/06/30 10:24:42;;;;;;;0.00;0.00;;;17.00;86.20;16.50;101109.00;;;;5005217;28;20056;-72
2021/06/30 10:27:11;;;;;;;0.15;0.13;;;17.10;84.60;16.40;101107.00;;;;5022252;28;20103;-72
2021/06/30 10:29:43;;;;;;;0.00;0.00;;;17.10;84.60;16.40;101107.00;;;;5006192;28;20044;-72
2021/06/30 10:32:15;;;;;;;0.00;0.00;;;17.10;84.40;16.40;101121.00;;;;5020761;28;20448;-72
2021/06/30 10:34:48;;;;;;;0.00;0.00;;;16.80;85.50;16.40;101113.00;;;;5036029;28;20053;-71
2021/06/30 10:37:37;;;;;;;0.10;0.10;;;17.20;84.90;16.40;101106.00;;;;5024758;28;20523;-73
2021/06/30 10:40:15;;;;;;;0.00;0.00;;;17.20;85.90;16.60;101107.00;;;;5005664;28;20120;-72
2021/06/30 10:42:47;;;;;;;0.00;0.00;;;17.30;86.70;16.80;101107.00;;;;5020404;28;20104;-72
2021/06/30 10:45:13;;;;;;;0.00;0.00;;;17.40;86.40;17.10;101105.00;;;;5005446;28;20104;-71
2021/06/30 10:48:02;;;;;;;0.10;0.00;;;17.50;86.00;17.20;101107.00;;;;5022576;28;20071;-73
2021/06/30 10:50:37;;;;;;;0.00;0.00;;;17.70;85.00;17.20;101105.00;;;;5021563;28;20072;-72
2021/06/30 10:53:03;;;;;;;0.00;0.00;;;18.30;82.90;16.90;101108.00;;;;5038481;28;20041;-72